Time;durP1;ratioP1;P1;durP2;ratioP2;P2;SDS_P1;SDS_P2;PMS_P1;PMS_P2;Temp;Humidity;BMP_temperature;BMP_pressure;BME280_temperature;BME280_humidity;BME280_pressure;Samples;Min_cycle;Max_cycle;Signal;HPM_P1;HPM_P2
2022/09/23 00:02:27;;;;;;;3.88;2.17;;;17.80;65.70;;;;;;10076118;29;20036;-62
2022/09/23 00:07:28;;;;;;;2.47;1.65;;;17.80;65.80;;;;;;10091618;29;20069;-64
2022/09/23 00:12:28;;;;;;;3.40;1.73;;;17.80;65.80;;;;;;10092630;29;20309;-64
2022/09/23 00:17:30;;;;;;;3.92;1.30;;;17.80;65.90;;;;;;10076331;29;20052;-64
2022/09/23 00:22:32;;;;;;;2.67;1.40;;;17.80;65.90;;;;;;10075192;29;20033;-63
2022/09/23 00:27:33;;;;;;;3.10;1.48;;;17.80;65.80;;;;;;10075457;29;20033;-63
2022/09/23 00:32:35;;;;;;;2.47;1.40;;;17.80;65.80;;;;;;10091615;29;20040;-63
2022/09/23 00:37:36;;;;;;;3.17;1.83;;;17.70;65.70;;;;;;10074534;29;20045;-63
2022/09/23 00:42:36;;;;;;;3.22;1.65;;;17.80;65.80;;;;;;10091270;29;20108;-64
2022/09/23 00:47:55;;;;;;;2.33;1.35;;;17.70;65.50;;;;;;10090134;29;20561;-64
2022/09/23 00:53:00;;;;;;;3.00;1.63;;;17.80;65.30;;;;;;10074233;29;20037;-63
2022/09/23 00:58:04;;;;;;;3.42;1.17;;;17.80;65.30;;;;;;10073925;29;20041;-63
2022/09/23 01:03:06;;;;;;;4.68;1.90;;;17.70;65.40;;;;;;10074052;29;20442;-63
2022/09/23 01:08:10;;;;;;;2.08;1.42;;;17.70;65.40;;;;;;10073202;29;20037;-63
2022/09/23 01:13:54;;;;;;;2.45;1.50;;;17.70;65.50;;;;;;10073372;29;20033;-64
2022/09/23 01:19:20;;;;;;;3.65;1.27;;;17.70;65.40;;;;;;10083450;29;20124;-63
2022/09/23 01:25:15;;;;;;;2.45;1.20;;;17.70;65.40;;;;;;10089423;29;20037;-64
2022/09/23 01:30:36;;;;;;;3.33;1.55;;;17.70;65.40;;;;;;10081287;29;20381;-63
2022/09/23 01:35:57;;;;;;;2.67;1.63;;;17.70;65.50;;;;;;10073213;29;20045;-63
2022/09/23 01:41:33;;;;;;;1.65;1.15;;;17.70;65.40;;;;;;10088366;29;20493;-62
2022/09/23 01:46:58;;;;;;;1.85;1.08;;;17.60;65.30;;;;;;10087480;29;20037;-64
2022/09/23 01:52:10;;;;;;;2.20;1.30;;;17.70;65.40;;;;;;10088821;29;20485;-64
2022/09/23 01:57:20;;;;;;;2.58;1.60;;;17.60;65.40;;;;;;10032643;29;20077;-64
2022/09/23 02:02:40;;;;;;;1.80;1.40;;;17.60;65.10;;;;;;10072230;29;20089;-62
2022/09/23 02:07:59;;;;;;;1.85;1.40;;;17.60;64.90;;;;;;10071875;29;20073;-63
2022/09/23 02:13:08;;;;;;;3.03;1.60;;;17.60;65.00;;;;;;10072580;29;20036;-63
2022/09/23 02:18:33;;;;;;;1.70;1.20;;;17.60;65.10;;;;;;10058241;29;20049;-63
2022/09/23 02:23:49;;;;;;;2.63;1.42;;;17.60;65.10;;;;;;10071941;29;20379;-63
2022/09/23 02:29:17;;;;;;;2.38;1.67;;;17.60;65.10;;;;;;10071368;29;20125;-63
2022/09/23 02:34:33;;;;;;;1.92;1.30;;;17.60;65.10;;;;;;10084301;29;20079;-63
2022/09/23 02:39:55;;;;;;;2.78;1.63;;;17.60;65.10;;;;;;10085455;29;20069;-61
2022/09/23 02:44:57;;;;;;;2.42;1.42;;;17.60;65.10;;;;;;10071937;29;20037;-63
2022/09/23 02:49:58;;;;;;;3.08;1.42;;;17.60;65.10;;;;;;10070498;29;20065;-64
2022/09/23 02:54:59;;;;;;;2.08;1.40;;;17.50;65.10;;;;;;10054853;29;20191;-63
2022/09/23 03:00:01;;;;;;;3.30;1.40;;;17.60;65.10;;;;;;10087908;29;20121;-63
2022/09/23 03:05:22;;;;;;;2.75;1.58;;;17.60;65.10;;;;;;10093468;29;20795;-62
2022/09/23 03:10:53;;;;;;;2.22;1.25;;;17.50;65.00;;;;;;10078738;29;20382;-63
2022/09/23 03:16:20;;;;;;;2.30;1.45;;;17.50;64.70;;;;;;10079453;29;20076;-62
2022/09/23 03:21:32;;;;;;;2.10;1.45;;;17.50;64.60;;;;;;10097387;29;20637;-63
2022/09/23 03:26:37;;;;;;;2.22;1.33;;;17.50;64.70;;;;;;10092972;29;20041;-62
2022/09/23 03:31:41;;;;;;;1.55;1.27;;;17.50;64.80;;;;;;10076905;29;20092;-63
2022/09/23 03:36:59;;;;;;;2.28;1.30;;;17.50;64.70;;;;;;10077305;29;20132;-61
2022/09/23 03:42:07;;;;;;;1.67;1.30;;;17.50;64.80;;;;;;10077276;29;20061;-62
2022/09/23 03:47:07;;;;;;;1.98;1.40;;;17.50;64.90;;;;;;10092870;29;20041;-63
2022/09/23 03:52:08;;;;;;;2.35;1.55;;;17.50;64.80;;;;;;10090919;29;20104;-63
2022/09/23 03:57:10;;;;;;;1.48;1.10;;;17.50;64.80;;;;;;10092138;29;20041;-63
2022/09/23 04:02:11;;;;;;;1.70;1.33;;;17.50;64.90;;;;;;10075385;29;20075;-63
2022/09/23 04:07:12;;;;;;;1.73;1.30;;;17.50;64.80;;;;;;10075331;29;20466;-63
2022/09/23 04:12:15;;;;;;;2.47;1.80;;;17.40;64.70;;;;;;10074563;29;20040;-63
2022/09/23 04:17:16;;;;;;;1.42;1.15;;;17.40;64.70;;;;;;10078898;29;20041;-63
2022/09/23 04:22:16;;;;;;;2.05;1.33;;;17.40;64.60;;;;;;10075028;29;20041;-63
2022/09/23 04:27:17;;;;;;;2.97;1.30;;;17.40;64.60;;;;;;10074652;29;20170;-63
2022/09/23 04:32:18;;;;;;;1.73;1.17;;;17.40;64.40;;;;;;10074359;29;20347;-63
2022/09/23 04:37:18;;;;;;;2.17;1.30;;;17.40;64.40;;;;;;10074081;29;20068;-63
2022/09/23 04:42:19;;;;;;;2.17;1.60;;;17.40;64.40;;;;;;10083326;29;20109;-64
2022/09/23 04:47:20;;;;;;;2.50;1.45;;;17.40;64.50;;;;;;10073969;29;20680;-63
2022/09/23 04:52:20;;;;;;;3.30;1.90;;;17.40;64.50;;;;;;10073065;29;20052;-64
2022/09/23 04:57:22;;;;;;;7.57;2.88;;;17.40;64.60;;;;;;10073422;29;20573;-62
2022/09/23 05:02:24;;;;;;;7.38;2.55;;;17.50;65.80;;;;;;10083230;29;20029;-65
2022/09/23 05:07:24;;;;;;;5.80;2.25;;;17.60;66.00;;;;;;10060987;29;20116;-62
2022/09/23 05:12:25;;;;;;;7.07;2.83;;;17.70;65.60;;;;;;10075833;29;20071;-64
2022/09/23 05:17:30;;;;;;;13.55;2.70;;;17.70;66.00;;;;;;10072878;29;20165;-61
2022/09/23 05:22:31;;;;;;;5.15;2.55;;;17.70;66.60;;;;;;10087505;29;20024;-64
2022/09/23 05:27:31;;;;;;;15.18;3.38;;;17.70;67.00;;;;;;10086798;29;20398;-62
2022/09/23 05:32:32;;;;;;;8.63;3.38;;;17.70;67.10;;;;;;10070209;29;20033;-61
2022/09/23 05:37:33;;;;;;;8.73;3.05;;;17.70;67.40;;;;;;10088423;29;20522;-64
2022/09/23 05:42:35;;;;;;;11.68;4.20;;;17.70;67.30;;;;;;10072443;29;20496;-61
2022/09/23 05:47:36;;;;;;;15.35;3.40;;;17.70;67.40;;;;;;10072250;29;20041;-62
2022/09/23 05:52:36;;;;;;;19.98;4.13;;;17.70;67.60;;;;;;10087302;29;20092;-62
2022/09/23 05:57:37;;;;;;;14.60;3.70;;;17.70;67.60;;;;;;10088056;29;20076;-61
2022/09/23 06:02:38;;;;;;;22.40;5.80;;;17.80;67.60;;;;;;10070362;29;20065;-62
2022/09/23 06:07:38;;;;;;;19.45;4.82;;;17.80;67.80;;;;;;10070922;29;20060;-62
2022/09/23 06:12:41;;;;;;;25.25;4.57;;;17.70;67.80;;;;;;10087343;29;20097;-63
2022/09/23 06:17:41;;;;;;;20.33;4.53;;;17.80;68.00;;;;;;10079784;29;20041;-65
2022/09/23 06:22:42;;;;;;;22.52;5.45;;;17.80;67.60;;;;;;10082367;29;20033;-58
2022/09/23 06:27:43;;;;;;;16.02;4.38;;;17.70;67.50;;;;;;10066242;29;20168;-60
2022/09/23 06:32:51;;;;;;;14.30;4.60;;;17.60;67.50;;;;;;10082044;29;20067;-58
2022/09/23 06:37:53;;;;;;;9.70;3.88;;;17.60;67.40;;;;;;10049102;29;20097;-62
2022/09/23 06:43:01;;;;;;;16.77;4.60;;;17.50;67.40;;;;;;10066717;29;20033;-68
2022/09/23 06:48:03;;;;;;;17.08;3.47;;;17.60;67.70;;;;;;10067427;29;20076;-63
2022/09/23 06:53:04;;;;;;;13.50;4.07;;;17.60;67.80;;;;;;10084902;29;20062;-62
2022/09/23 06:58:05;;;;;;;14.25;3.78;;;17.70;68.00;;;;;;10050816;29;20519;-63
2022/09/23 07:03:07;;;;;;;14.20;3.95;;;17.70;68.00;;;;;;10067203;29;20512;-61
2022/09/23 07:08:10;;;;;;;20.55;3.97;;;17.70;68.00;;;;;;10084238;29;20489;-62
2022/09/23 07:13:11;;;;;;;14.23;4.53;;;17.70;68.00;;;;;;10083668;29;20388;-64
2022/09/23 07:18:11;;;;;;;11.73;3.38;;;17.70;68.80;;;;;;10077584;29;20148;-63
2022/09/23 07:23:12;;;;;;;10.45;3.20;;;17.70;68.10;;;;;;10067205;29;20456;-63
2022/09/23 07:28:13;;;;;;;10.25;3.65;;;17.60;68.20;;;;;;10067113;29;20041;-61
2022/09/23 07:33:14;;;;;;;12.48;3.47;;;17.60;68.00;;;;;;10082840;29;20561;-63
2022/09/23 07:38:15;;;;;;;13.75;4.75;;;17.60;68.20;;;;;;10067190;29;20481;-62
2022/09/23 07:43:17;;;;;;;8.65;3.60;;;17.60;68.10;;;;;;10065950;29;20045;-63
2022/09/23 07:48:18;;;;;;;14.05;3.25;;;17.60;68.20;;;;;;10055376;29;20065;-62
2022/09/23 07:53:19;;;;;;;10.20;3.20;;;17.60;68.30;;;;;;10073528;29;20124;-66
2022/09/23 07:58:20;;;;;;;10.10;3.42;;;17.60;68.50;;;;;;10090085;29;20586;-60
2022/09/23 08:03:20;;;;;;;12.07;3.47;;;17.60;68.40;;;;;;10089138;29;20299;-58
2022/09/23 08:08:21;;;;;;;9.93;3.13;;;17.70;68.50;;;;;;10073024;29;20538;-61
2022/09/23 08:13:22;;;;;;;9.32;4.50;;;17.60;68.50;;;;;;10089710;29;20131;-63
2022/09/23 08:18:23;;;;;;;8.95;2.90;;;17.70;68.20;;;;;;10081423;29;20036;-63
2022/09/23 08:23:24;;;;;;;7.75;2.80;;;17.60;68.40;;;;;;10071080;29;20029;-64
2022/09/23 08:28:26;;;;;;;11.73;3.33;;;17.60;68.30;;;;;;10070877;29;20037;-61
2022/09/23 08:33:27;;;;;;;11.45;3.60;;;17.70;71.50;;;;;;10071848;29;20124;-58
2022/09/23 08:38:29;;;;;;;6.50;3.10;;;17.70;71.30;;;;;;10071859;29;20113;-59
2022/09/23 08:43:33;;;;;;;11.02;3.35;;;17.70;70.50;;;;;;10070916;29;20081;-62
2022/09/23 08:48:41;;;;;;;9.27;3.03;;;17.70;70.00;;;;;;10070684;29;20029;-61
2022/09/23 08:53:44;;;;;;;8.30;3.53;;;17.70;69.80;;;;;;10071696;29;20041;-62
2022/09/23 08:58:59;;;;;;;14.05;2.88;;;17.70;69.80;;;;;;10069206;29;20609;-61
2022/09/23 09:04:26;;;;;;;12.30;2.65;;;17.60;69.20;;;;;;10087921;29;20029;-58
2022/09/23 09:09:44;;;;;;;9.85;3.10;;;17.60;69.20;;;;;;10087761;29;20037;-61
2022/09/23 09:15:06;;;;;;;9.35;4.10;;;17.60;69.30;;;;;;10071316;29;20063;-61
2022/09/23 09:20:22;;;;;;;8.07;3.38;;;17.60;69.10;;;;;;10070027;29;20080;-61
2022/09/23 09:25:49;;;;;;;7.82;2.83;;;17.50;68.90;;;;;;10085295;29;20033;-60
2022/09/23 09:31:04;;;;;;;7.70;3.05;;;17.50;69.00;;;;;;10071757;29;20060;-61
2022/09/23 09:36:29;;;;;;;6.45;2.42;;;17.50;69.00;;;;;;10074356;29;20549;-61
2022/09/23 09:41:32;;;;;;;7.22;2.38;;;17.50;69.00;;;;;;10085062;29;20066;-60
2022/09/23 09:47:25;;;;;;;5.63;2.13;;;17.50;69.50;;;;;;10069678;29;20477;-62
2022/09/23 09:52:28;;;;;;;5.78;2.40;;;17.50;68.80;;;;;;10067622;29;20065;-62
2022/09/23 09:57:43;;;;;;;6.53;2.25;;;17.50;68.90;;;;;;10085600;29;20053;-63
2022/09/23 10:02:45;;;;;;;7.30;2.53;;;17.50;68.90;;;;;;10065308;29;20033;-61
2022/09/23 10:07:47;;;;;;;5.32;2.92;;;17.60;68.90;;;;;;10069284;29;20121;-60
2022/09/23 10:12:48;;;;;;;8.57;2.50;;;17.60;68.70;;;;;;10066214;29;20040;-62
2022/09/23 10:17:50;;;;;;;9.73;3.00;;;17.60;68.70;;;;;;10076507;29;20052;-56
2022/09/23 10:22:52;;;;;;;10.02;3.05;;;17.70;68.90;;;;;;10085926;29;20029;-58
2022/09/23 10:27:52;;;;;;;11.15;3.00;;;17.70;69.00;;;;;;10067549;29;20036;-57
2022/09/23 10:32:55;;;;;;;6.47;2.83;;;17.80;69.60;;;;;;10082616;29;20040;-60
2022/09/23 10:37:59;;;;;;;8.50;2.78;;;17.80;69.40;;;;;;10068238;29;20037;-59
2022/09/23 10:49:14;;;;;;;4.93;2.42;;;17.90;69.30;;;;;;10084959;29;20029;-60
2022/09/23 10:55:12;;;;;;;7.45;2.17;;;18.00;69.50;;;;;;10082914;29;20037;-64
2022/09/23 11:00:35;;;;;;;6.65;2.25;;;18.00;69.30;;;;;;10053751;29;20061;-69
2022/09/23 11:06:06;;;;;;;7.20;2.40;;;18.00;69.50;;;;;;10081536;29;20731;-62
2022/09/23 11:11:32;;;;;;;7.35;2.63;;;18.00;69.80;;;;;;10079581;29;20037;-62
2022/09/23 11:17:13;;;;;;;12.18;2.85;;;18.00;69.80;;;;;;10067163;29;20033;-60
2022/09/23 11:22:40;;;;;;;10.20;2.42;;;18.00;69.70;;;;;;10073747;29;20056;-64
2022/09/23 11:28:07;;;;;;;7.53;2.47;;;17.90;69.70;;;;;;10089692;29;20092;-63
2022/09/23 11:33:32;;;;;;;5.50;3.28;;;17.90;69.90;;;;;;10074309;29;20056;-61
2022/09/23 11:38:41;;;;;;;5.88;3.08;;;17.90;69.90;;;;;;10073862;29;20025;-63
2022/09/23 11:43:42;;;;;;;;;;;17.80;69.90;;;;;;10073319;29;20041;-63
2022/09/23 11:49:03;;;;;;;11.20;2.70;;;17.70;70.10;;;;;;10074142;29;20328;-62
2022/09/23 11:54:23;;;;;;;10.60;3.15;;;17.70;70.20;;;;;;10067893;29;20028;-60
2022/09/23 11:59:45;;;;;;;6.07;2.88;;;17.70;70.10;;;;;;10074288;29;20068;-61
2022/09/23 12:04:57;;;;;;;7.03;2.60;;;17.70;70.20;;;;;;10072929;29;20370;-60
2022/09/23 12:10:05;;;;;;;7.03;2.47;;;17.70;70.20;;;;;;10073540;29;20037;-60
2022/09/23 12:15:35;;;;;;;8.70;2.90;;;17.70;70.30;;;;;;10071367;29;20045;-60
2022/09/23 12:21:00;;;;;;;17.80;4.28;;;17.70;70.30;;;;;;10094382;29;20032;-58
2022/09/23 12:26:07;;;;;;;17.42;3.25;;;17.80;70.90;;;;;;10085970;29;20033;-57
2022/09/23 12:31:31;;;;;;;19.73;4.05;;;17.80;70.30;;;;;;10070791;29;20033;-58
2022/09/23 12:36:34;;;;;;;11.07;3.05;;;17.80;70.30;;;;;;10073267;29;20044;-60
2022/09/23 12:41:41;;;;;;;26.98;5.07;;;17.90;70.50;;;;;;10069131;29;20040;-60
2022/09/23 12:46:45;;;;;;;23.17;4.15;;;17.90;70.50;;;;;;10085853;29;20513;-58
2022/09/23 12:52:14;;;;;;;18.10;4.75;;;17.90;70.80;;;;;;10081499;29;20040;-56
2022/09/23 12:57:33;;;;;;;21.15;4.50;;;17.90;70.60;;;;;;10084610;29;20088;-57
2022/09/23 13:02:39;;;;;;;21.05;4.00;;;17.90;70.60;;;;;;10083005;29;20506;-54
2022/09/23 13:07:46;;;;;;;14.60;3.35;;;17.90;70.60;;;;;;10085245;29;20076;-60
2022/09/23 13:12:47;;;;;;;26.95;3.90;;;17.90;70.90;;;;;;10053751;29;20112;-60
2022/09/23 13:17:47;;;;;;;18.80;3.97;;;18.10;70.80;;;;;;10070608;29;20041;-59
2022/09/23 13:22:48;;;;;;;18.95;4.95;;;18.20;70.40;;;;;;10070162;29;20033;-62
2022/09/23 13:27:53;;;;;;;17.98;3.97;;;18.20;70.60;;;;;;10086194;29;20548;-59
2022/09/23 13:33:38;;;;;;;13.55;3.75;;;18.20;70.60;;;;;;10070259;29;20068;-58
2022/09/23 13:38:39;;;;;;;14.10;3.03;;;18.30;70.70;;;;;;10056635;29;20374;-55
2022/09/23 13:43:59;;;;;;;14.23;4.20;;;18.30;70.40;;;;;;10068843;29;20025;-56
2022/09/23 13:49:01;;;;;;;11.43;3.72;;;18.50;70.20;;;;;;10085487;29;20037;-55
2022/09/23 13:54:03;;;;;;;12.98;3.78;;;18.50;70.60;;;;;;10069286;29;20033;-56
2022/09/23 13:59:25;;;;;;;19.98;4.40;;;18.60;70.70;;;;;;10046182;29;20054;-58
2022/09/23 14:04:25;;;;;;;20.20;5.13;;;18.60;71.00;;;;;;10044569;29;20405;-58
2022/09/23 14:09:28;;;;;;;28.88;5.80;;;18.80;70.20;;;;;;10045678;29;20036;-57
2022/09/23 14:14:29;;;;;;;29.55;4.82;;;18.80;70.40;;;;;;10046264;29;20299;-61
2022/09/23 14:19:31;;;;;;;24.92;5.65;;;18.90;70.00;;;;;;10053716;29;20071;-63
2022/09/23 14:24:36;;;;;;;34.25;5.78;;;18.80;69.60;;;;;;10045414;29;20033;-62
2022/09/23 14:29:40;;;;;;;17.33;6.18;;;18.80;68.90;;;;;;10043463;29;20061;-65
2022/09/23 14:35:20;;;;;;;18.35;5.57;;;18.70;69.20;;;;;;10043528;29;20074;-63
2022/09/23 14:40:24;;;;;;;16.42;4.78;;;18.50;69.60;;;;;;10045811;29;20042;-62
2022/09/23 14:45:30;;;;;;;15.02;5.05;;;18.30;70.10;;;;;;10060338;29;20048;-64
2022/09/23 14:50:45;;;;;;;24.00;6.18;;;18.30;70.20;;;;;;10045038;29;20254;-64
2022/09/23 14:55:51;;;;;;;19.77;5.22;;;18.20;70.20;;;;;;10048866;29;20073;-62
2022/09/23 15:01:01;;;;;;;13.15;4.30;;;18.20;70.30;;;;;;10054084;29;20537;-63
2022/09/23 15:06:08;;;;;;;20.25;4.78;;;18.20;70.30;;;;;;10037204;29;20045;-63
2022/09/23 15:11:08;;;;;;;20.10;5.45;;;18.10;70.30;;;;;;10037795;29;20680;-63
2022/09/23 15:16:14;;;;;;;14.85;4.72;;;18.10;70.20;;;;;;10038258;29;20046;-61
2022/09/23 15:21:20;;;;;;;12.65;4.70;;;18.10;70.20;;;;;;10057597;29;20029;-61
2022/09/23 15:26:45;;;;;;;17.25;4.88;;;18.10;70.10;;;;;;10038965;29;20061;-58
2022/09/23 15:31:46;;;;;;;10.63;4.05;;;18.10;70.00;;;;;;10039434;29;20044;-67
2022/09/23 15:36:47;;;;;;;10.48;4.13;;;18.10;70.00;;;;;;10052807;29;20552;-60
2022/09/23 15:41:48;;;;;;;24.23;9.82;;;18.20;70.10;;;;;;10052292;29;20037;-59
2022/09/23 15:46:50;;;;;;;13.48;5.50;;;18.10;69.80;;;;;;10049003;29;20452;-60
2022/09/23 15:51:52;;;;;;;14.75;6.72;;;18.10;70.00;;;;;;10035841;29;20034;-60
2022/09/23 15:56:53;;;;;;;12.02;4.63;;;18.10;71.00;;;;;;10051964;29;20045;-63
2022/09/23 16:01:55;;;;;;;6.68;3.08;;;18.10;69.60;;;;;;10072706;29;20041;-60
2022/09/23 16:06:57;;;;;;;7.65;3.40;;;18.00;67.70;;;;;;10082054;29;20041;-59
2022/09/23 16:12:02;;;;;;;9.27;4.18;;;18.00;67.50;;;;;;10073090;29;20037;-61
2022/09/23 16:17:03;;;;;;;12.93;4.15;;;18.00;67.30;;;;;;10088617;29;20166;-60
2022/09/23 16:22:04;;;;;;;21.23;5.55;;;18.00;68.10;;;;;;10095723;29;20029;-60
2022/09/23 16:27:06;;;;;;;9.80;4.03;;;18.10;68.60;;;;;;10073346;29;20493;-60
2022/09/23 16:32:07;;;;;;;15.50;4.45;;;18.10;68.60;;;;;;10088851;29;20125;-64
2022/09/23 16:37:14;;;;;;;16.05;3.95;;;18.20;68.60;;;;;;10075987;29;20043;-61
2022/09/23 16:42:15;;;;;;;17.23;4.43;;;18.30;69.30;;;;;;10087761;29;20048;-60
2022/09/23 16:47:16;;;;;;;19.38;4.70;;;18.30;70.10;;;;;;10089022;29;20045;-57
2022/09/23 16:52:16;;;;;;;18.20;5.20;;;18.40;70.30;;;;;;10089459;29;20120;-63
2022/09/23 16:57:17;;;;;;;14.77;4.50;;;18.50;69.90;;;;;;10073315;29;20676;-61
2022/09/23 17:07:37;;;;;;;13.57;3.85;;;18.50;70.40;;;;;;10089934;29;20029;-59
2022/09/23 17:12:38;;;;;;;9.30;4.13;;;18.50;70.40;;;;;;10072834;29;20033;-61
2022/09/23 17:17:38;;;;;;;14.13;4.05;;;18.40;69.80;;;;;;10088871;29;20073;-58
2022/09/23 17:22:40;;;;;;;12.63;4.03;;;18.30;70.00;;;;;;10071933;29;20085;-64
2022/09/23 17:27:40;;;;;;;16.20;4.63;;;18.20;70.00;;;;;;10072172;29;20056;-61
2022/09/23 17:32:41;;;;;;;14.13;3.88;;;18.20;70.10;;;;;;10087911;29;20071;-58
2022/09/23 17:37:42;;;;;;;11.35;4.45;;;18.30;70.60;;;;;;10072314;29;20048;-61
2022/09/23 17:42:52;;;;;;;12.30;3.45;;;18.30;70.40;;;;;;10482655;28;20488;-63
2022/09/23 17:47:53;;;;;;;11.35;3.50;;;18.30;70.20;;;;;;10446581;28;20064;-63
2022/09/23 17:52:54;;;;;;;10.00;3.83;;;18.20;70.30;;;;;;10445574;28;20583;-62
2022/09/23 17:57:54;;;;;;;12.80;3.95;;;18.20;70.60;;;;;;10441548;28;20091;-60
2022/09/23 18:02:55;;;;;;;9.55;4.13;;;18.10;70.70;;;;;;10438525;28;20766;-61
2022/09/23 18:07:56;;;;;;;15.25;4.75;;;18.10;70.60;;;;;;10437533;28;20109;-61
2022/09/23 18:12:56;;;;;;;7.20;3.67;;;18.10;70.60;;;;;;10436362;28;20060;-59
2022/09/23 18:17:57;;;;;;;13.27;4.43;;;18.10;70.50;;;;;;10404357;28;20085;-53
2022/09/23 18:22:58;;;;;;;15.73;4.93;;;18.10;70.40;;;;;;10398505;28;20105;-54
2022/09/23 18:27:59;;;;;;;18.67;3.90;;;18.10;70.70;;;;;;10396456;28;20024;-55
2022/09/23 18:33:00;;;;;;;15.00;5.13;;;18.10;70.70;;;;;;10396743;28;20108;-54
2022/09/23 18:38:01;;;;;;;13.25;4.30;;;18.10;70.60;;;;;;10393665;28;20034;-56
2022/09/23 18:43:02;;;;;;;12.02;4.40;;;18.10;71.00;;;;;;10395307;28;20448;-55
2022/09/23 18:53:22;;;;;;;12.90;4.53;;;18.10;71.10;;;;;;10372709;28;20026;-55
2022/09/23 18:58:23;;;;;;;11.77;4.95;;;18.00;71.10;;;;;;10368344;28;20303;-54
2022/09/23 19:03:24;;;;;;;7.65;3.70;;;18.10;71.00;;;;;;10367331;28;20109;-56
2022/09/23 19:08:24;;;;;;;9.93;4.22;;;18.10;70.90;;;;;;10366817;28;20657;-55
2022/09/23 19:13:25;;;;;;;9.60;3.67;;;18.00;70.80;;;;;;10366356;28;20109;-55
2022/09/23 19:18:28;;;;;;;8.18;3.85;;;18.10;70.80;;;;;;10364743;28;20038;-56
2022/09/23 19:23:31;;;;;;;9.40;3.80;;;18.00;70.80;;;;;;10366933;28;20018;-55
2022/09/23 19:28:32;;;;;;;14.90;4.00;;;18.00;70.70;;;;;;10367700;28;20072;-56
2022/09/23 19:33:32;;;;;;;7.93;3.78;;;18.00;70.70;;;;;;10364568;28;20029;-55
2022/09/23 19:38:33;;;;;;;9.75;3.55;;;18.00;70.60;;;;;;10363660;28;20117;-54
2022/09/23 19:43:37;;;;;;;9.60;3.30;;;18.00;70.70;;;;;;10366235;28;20046;-55
2022/09/23 19:48:37;;;;;;;8.95;3.22;;;18.00;70.60;;;;;;10365644;28;20030;-55
2022/09/23 19:53:41;;;;;;;7.28;3.13;;;18.00;70.50;;;;;;10367234;28;20049;-55
2022/09/23 19:58:51;;;;;;;9.35;3.38;;;18.00;70.50;;;;;;10352717;28;20042;-55
2022/09/23 20:03:52;;;;;;;6.80;3.25;;;18.00;70.50;;;;;;10365361;28;20022;-56
2022/09/23 20:08:53;;;;;;;7.47;3.45;;;18.00;70.50;;;;;;10357211;28;20026;-55
2022/09/23 20:13:59;;;;;;;5.50;2.70;;;18.00;70.50;;;;;;10364809;28;20026;-56
2022/09/23 20:19:00;;;;;;;9.25;4.78;;;18.00;70.50;;;;;;10376014;28;20087;-56
2022/09/23 20:24:04;;;;;;;5.75;2.90;;;18.00;70.50;;;;;;10364242;28;20099;-55
2022/09/23 20:29:05;;;;;;;4.72;2.78;;;17.90;70.40;;;;;;10365792;28;20030;-55
2022/09/23 20:34:06;;;;;;;6.93;2.83;;;17.90;70.40;;;;;;10365696;28;20018;-55
2022/09/23 20:39:09;;;;;;;8.73;3.35;;;17.90;70.40;;;;;;10364047;28;20049;-56
2022/09/23 20:44:11;;;;;;;8.25;3.60;;;17.90;70.40;;;;;;10363602;28;20018;-56
2022/09/23 20:49:11;;;;;;;5.88;3.10;;;17.90;70.30;;;;;;10363778;28;20018;-55
2022/09/23 20:54:12;;;;;;;5.70;3.00;;;17.90;70.20;;;;;;10380448;28;20034;-55
2022/09/23 20:59:13;;;;;;;6.95;3.55;;;17.90;70.20;;;;;;10364587;28;20489;-55
2022/09/23 21:04:14;;;;;;;6.40;3.22;;;17.90;70.20;;;;;;10364768;28;20023;-55
2022/09/23 21:09:15;;;;;;;6.00;3.50;;;17.90;70.20;;;;;;10364515;28;20030;-55
2022/09/23 21:14:15;;;;;;;5.72;2.85;;;17.90;70.10;;;;;;10363959;28;20461;-54
2022/09/23 21:19:18;;;;;;;5.55;3.08;;;17.90;70.10;;;;;;10375059;28;20070;-55
2022/09/23 21:24:19;;;;;;;4.22;2.88;;;17.90;70.10;;;;;;10363991;28;20112;-56
2022/09/23 21:29:20;;;;;;;5.03;2.90;;;17.90;70.10;;;;;;10363091;28;20021;-55
2022/09/23 21:34:21;;;;;;;5.72;2.90;;;17.90;70.10;;;;;;10362325;28;20061;-55
2022/09/23 21:39:22;;;;;;;6.68;2.92;;;17.90;70.10;;;;;;10362746;28;20038;-56
2022/09/23 21:44:23;;;;;;;6.82;3.08;;;17.90;70.10;;;;;;10363811;28;20089;-55
2022/09/23 21:49:24;;;;;;;6.63;3.05;;;17.90;70.10;;;;;;10363198;28;20081;-55
2022/09/23 21:54:25;;;;;;;6.78;3.25;;;17.90;70.00;;;;;;10361789;28;20117;-55
2022/09/23 21:59:26;;;;;;;4.88;3.58;;;17.90;70.00;;;;;;10376887;28;20444;-55
2022/09/23 22:04:28;;;;;;;6.57;2.90;;;17.90;70.00;;;;;;10362904;28;20026;-56
2022/09/23 22:09:28;;;;;;;5.28;2.97;;;17.90;69.90;;;;;;10361796;28;20022;-53
2022/09/23 22:14:29;;;;;;;5.38;2.78;;;17.90;69.90;;;;;;10361336;28;20053;-55
2022/09/23 22:19:34;;;;;;;8.80;2.85;;;17.90;69.90;;;;;;10373392;28;20033;-54
2022/09/23 22:24:34;;;;;;;4.95;2.90;;;17.90;69.90;;;;;;10361098;28;20592;-55
2022/09/23 22:34:55;;;;;;;3.97;2.65;;;17.90;70.00;;;;;;10368623;28;20049;-55
2022/09/23 22:39:55;;;;;;;3.30;2.38;;;17.90;69.90;;;;;;10368445;28;20124;-55
2022/09/23 22:44:56;;;;;;;5.05;2.97;;;17.90;69.90;;;;;;10369933;28;20038;-56
2022/09/23 22:49:57;;;;;;;3.45;2.80;;;17.90;69.90;;;;;;10369022;28;20049;-54
2022/09/23 22:54:58;;;;;;;3.97;2.50;;;17.90;69.90;;;;;;10368358;28;20377;-55
2022/09/23 22:59:58;;;;;;;4.07;2.55;;;17.90;69.90;;;;;;10369113;28;20060;-56
2022/09/23 23:04:59;;;;;;;3.40;2.30;;;17.90;69.90;;;;;;10384138;28;20062;-56
2022/09/23 23:10:02;;;;;;;5.70;3.83;;;17.90;69.90;;;;;;10367717;28;20076;-55
2022/09/23 23:15:03;;;;;;;5.03;2.40;;;17.90;69.90;;;;;;10366444;28;20464;-56
2022/09/23 23:20:05;;;;;;;3.53;2.75;;;17.90;70.00;;;;;;10369863;28;20046;-55
2022/09/23 23:25:06;;;;;;;4.47;2.50;;;17.90;69.90;;;;;;10383077;28;20367;-55
2022/09/23 23:30:08;;;;;;;3.75;2.78;;;17.90;69.90;;;;;;10368475;28;20652;-54
2022/09/23 23:35:08;;;;;;;5.78;2.78;;;17.90;69.90;;;;;;10367784;28;20029;-56
2022/09/23 23:40:09;;;;;;;3.53;2.78;;;17.90;69.90;;;;;;10380505;28;20065;-54
2022/09/23 23:45:10;;;;;;;5.07;2.80;;;17.90;69.90;;;;;;10373810;28;20113;-55
2022/09/23 23:50:11;;;;;;;3.50;2.58;;;17.90;69.90;;;;;;10365864;28;20050;-54
2022/09/23 23:55:11;;;;;;;4.20;2.35;;;17.90;69.90;;;;;;10366470;28;20054;-55
